地図

経路データ

SID SEASON NUMBER BASIN SUBBASIN NAME ISO_TIME NATURE LAT LON WMO_WIND WMO_PRES WMO_AGENCY TRACK_TYPE DIST2LAND LANDFALL IFLAG USA_AGENCY USA_ATCF_ID USA_LAT USA_LON USA_RECORD USA_STATUS USA_WIND USA_PRES USA_SSHS USA_R34_NE USA_R34_SE USA_R34_SW USA_R34_NW USA_R50_NE USA_R50_SE USA_R50_SW USA_R50_NW USA_R64_NE USA_R64_SE USA_R64_SW USA_R64_NW USA_POCI USA_ROCI USA_RMW USA_EYE TOKYO_LAT TOKYO_LON TOKYO_GRADE TOKYO_WIND TOKYO_PRES TOKYO_R50_DIR TOKYO_R50_LONG TOKYO_R50_SHORT TOKYO_R30_DIR TOKYO_R30_LONG TOKYO_R30_SHORT TOKYO_LAND CMA_LAT CMA_LON CMA_CAT CMA_WIND CMA_PRES HKO_LAT HKO_LON HKO_CAT HKO_WIND HKO_PRES NEWDELHI_LAT NEWDELHI_LON NEWDELHI_GRADE NEWDELHI_WIND NEWDELHI_PRES NEWDELHI_CI NEWDELHI_DP NEWDELHI_POCI REUNION_LAT REUNION_LON REUNION_TYPE REUNION_WIND REUNION_PRES REUNION_TNUM REUNION_CI REUNION_RMW REUNION_R34_NE REUNION_R34_SE REUNION_R34_SW REUNION_R34_NW REUNION_R50_NE REUNION_R50_SE REUNION_R50_SW REUNION_R50_NW REUNION_R64_NE REUNION_R64_SE REUNION_R64_SW REUNION_R64_NW BOM_LAT BOM_LON BOM_TYPE BOM_WIND BOM_PRES BOM_TNUM BOM_CI BOM_RMW BOM_R34_NE BOM_R34_SE BOM_R34_SW BOM_R34_NW BOM_R50_NE BOM_R50_SE BOM_R50_SW BOM_R50_NW BOM_R64_NE BOM_R64_SE BOM_R64_SW BOM_R64_NW BOM_ROCI BOM_POCI BOM_EYE BOM_POS_METHOD BOM_PRES_METHOD NADI_LAT NADI_LON NADI_CAT NADI_WIND NADI_PRES WELLINGTON_LAT WELLINGTON_LON WELLINGTON_WIND WELLINGTON_PRES DS824_LAT DS824_LON DS824_STAGE DS824_WIND DS824_PRES TD9636_LAT TD9636_LON TD9636_STAGE TD9636_WIND TD9636_PRES TD9635_LAT TD9635_LON TD9635_WIND TD9635_PRES TD9635_ROCI NEUMANN_LAT NEUMANN_LON NEUMANN_CLASS NEUMANN_WIND NEUMANN_PRES MLC_LAT MLC_LON MLC_CLASS MLC_WIND MLC_PRES USA_GUST BOM_GUST BOM_GUST_PER REUNION_GUST REUNION_GUST_PER USA_SEAHGT USA_SEARAD_NE USA_SEARAD_SE USA_SEARAD_SW USA_SEARAD_NW STORM_SPEED STORM_DIR
1961230N17119 1961 77 WP MM NOT_NAMED 1961-08-18 06:00:00 TS 17.0000 118.500 main 159 159 __O___________ -1 17.0000 118.500 0 19 1002 24 239
1961230N17119 1961 77 WP MM NOT_NAMED 1961-08-18 09:00:00 TS 16.3913 117.445 main 249 248 __P___________ -1 16.3913 117.445 0 19 1002 18 235
1961230N17119 1961 77 WP MM NOT_NAMED 1961-08-18 12:00:00 TS 16.0000 117.000 main 288 245 __O___________ -1 16.0000 117.000 0 19 1002 4 178
1961230N17119 1961 77 WP MM NOT_NAMED 1961-08-18 15:00:00 TS 15.9804 117.470 main 235 183 __P___________ -1 15.9804 117.470 0 19 1001 10 78
1961230N17119 1961 77 WP MM NOT_NAMED 1961-08-18 18:00:00 TS 16.2000 118.000 main 183 183 __O___________ -1 16.2000 118.000 0 19 1000 5 13
1961230N17119 1961 77 WP MM NOT_NAMED 1961-08-18 21:00:00 TS 16.4929 117.593 main 231 231 __P___________ -1 16.4929 117.593 0 24 999 12 297
1961230N17119 1961 77 WP MM NOT_NAMED 1961-08-19 00:00:00 TS 16.7200 116.920 main 308 308 __OO__________ -1 16.8000 116.900 1 29 998 16.4000 117.000 TD 25 1000 11 290
1961230N17119 1961 77 WP MM NOT_NAMED 1961-08-19 03:00:00 TS 16.8873 116.474 main 355 355 __PP__________ -1 16.9796 116.457 1 33 996 16.7027 116.508 TD 25 999 9 291
1961230N17119 1961 77 WP MM NOT_NAMED 1961-08-19 06:00:00 TS 17.0571 116.000 main 413 413 __OO__________ -1 17.1000 116.000 2 38 995 17.0000 116.000 TD 25 999 10 290
1961230N17119 1961 77 WP MM NOT_NAMED 1961-08-19 09:00:00 TS 17.2436 115.447 main 477 477 __PP__________ -1 17.2074 115.430 2 38 995 17.2798 115.465 TD 25 998 12 287
1961230N17119 1961 77 WP MM NOT_NAMED 1961-08-19 12:00:00 TS 17.4000 114.850 main 479 419 __OO__________ -1 17.3000 114.800 2 38 995 17.5000 114.900 TD 25 998 12 283
1961230N17119 1961 77 WP MM NOT_NAMED 1961-08-19 15:00:00 TS 17.5147 114.247 main 411 353 __PP__________ -1 17.3996 114.180 2 43 993 17.6298 114.315 TD 27 997 12 280
1961230N17119 1961 77 WP MM NOT_NAMED 1961-08-19 18:00:00 TS 17.6000 113.600 main 353 281 __OO__________ -1 17.5000 113.500 3 48 992 17.7000 113.700 TD 30 997 13 278
1961230N17119 1961 77 WP MM NOT_NAMED 1961-08-19 21:00:00 TS 17.6975 112.883 main 281 217 __PP__________ -1 17.6077 112.700 3 48 993 17.7873 113.065 TD 30 997 14 276
1961230N17119 1961 77 WP MM NOT_NAMED 1961-08-20 00:00:00 TS 17.7500 112.150 main 211 161 __OO__________ -1 17.7000 111.900 3 48 994 17.8000 112.400 TD 30 997 14 270
1961230N17119 1961 77 WP MM NOT_NAMED 1961-08-20 03:00:00 TS 17.7073 111.452 main 161 115 __PP__________ -1 17.7572 111.205 3 48 994 17.6574 111.700 TD 30 996 13 266
1961230N17119 1961 77 WP MM NOT_NAMED 1961-08-20 06:00:00 TS 17.6500 110.800 main 115 84 __OO__________ -1 17.8000 110.600 3 48 994 17.5000 111.000 TD 30 996 12 268
1961230N17119 1961 77 WP MM NOT_NAMED 1961-08-20 09:00:00 TS 17.6595 110.229 main 76 55 __PP__________ -1 17.8496 110.085 3 48 994 17.4694 110.373 TD 30 995 11 273
1961230N17119 1961 77 WP MM NOT_NAMED 1961-08-20 12:00:00 TS 17.7000 109.650 main 55 55 __OO__________ -1 17.9000 109.600 3 48 994 17.5000 109.700 TD 30 995 12 274
1961230N17119 1961 77 WP MM NOT_NAMED 1961-08-20 15:00:00 TS 17.7351 108.957 main 76 70 __PP__________ -1 17.9499 109.057 3 43 995 17.5203 108.857 TD 27 996 13 276
1961230N17119 1961 77 WP MM NOT_NAMED 1961-08-20 18:00:00 TS 17.8286 108.286 main 89 85 __OO__________ -1 18.0000 108.500 2 38 996 17.6000 108.000 TD 25 998 12 280
1961230N17119 1961 77 WP MM NOT_NAMED 1961-08-20 21:00:00 TS 17.9420 107.760 main 116 87 __PP__________ -1 18.0267 108.010 2 33 996 17.7726 107.260 TD 25 998 10 284
1961230N17119 1961 77 WP MM NOT_NAMED 1961-08-21 00:00:00 TS 18.0800 107.240 main 77 30 __OO__________ -1 18.1000 107.400 1 29 997 18.0000 106.600 TD 25 998 12 287
1961230N17119 1961 77 WP MM NOT_NAMED 1961-08-21 03:00:00 TS 18.3077 106.518 main 23 0 __P___________ -1 18.3077 106.518 1 29 997 TD 17 284
1961230N17119 1961 77 WP MM NOT_NAMED 1961-08-21 06:00:00 TS 18.5000 105.500 main 0 0 __O___________ -1 18.5000 105.500 1 29 998 20 276
1961230N17119 1961 77 WP MM NOT_NAMED 1961-08-21 09:00:00 TS 18.5306 104.432 main 0 0 __P___________ -1 18.5306 104.432 1 24 999 19 270
1961230N17119 1961 77 WP MM NOT_NAMED 1961-08-21 12:00:00 TS 18.5000 103.500 main 0 0 __O___________ -1 18.5000 103.500 0 19 1000 15 268
1961230N17119 1961 77 WP MM NOT_NAMED 1961-08-21 15:00:00 TS 18.4895 102.898 main 0 0 __P___________ -1 18.4895 102.898 0 1001 9 270
1961230N17119 1961 77 WP MM NOT_NAMED 1961-08-21 18:00:00 TS 18.5000 102.500 main 0 __O___________ -1 18.5000 102.500 0 1002 8 272

デジタル台風データ・検索

IBTrACS Databaseについて

本データベースは、米国NOAAが公開する1842年以降の世界の熱帯低気圧のベストトラックデータアーカイブInternational Best Track Archive for Climate Stewardship (IBTrACS)を、ウェブで閲覧しやすい形式に変換したものです。

最終更新日:2021-12-03